Time;durP1;ratioP1;P1;durP2;ratioP2;P2;SDS_P1;SDS_P2;PMS_P1;PMS_P2;Temp;Humidity;BMP_temperature;BMP_pressure;BME280_temperature;BME280_humidity;BME280_pressure;Samples;Min_cycle;Max_cycle;Signal;HPM_P1;HPM_P2
2021/08/08 00:00:57;;;;;;;2.17;0.57;;;13.80;99.90;;;;;;5034037;28;19974;-66
2021/08/08 00:03:22;;;;;;;;;;;13.80;99.90;;;;;;5060126;28;20041;-66
2021/08/08 00:05:48;;;;;;;2.72;0.70;;;13.80;99.90;;;;;;5058498;28;19967;-65
2021/08/08 00:08:14;;;;;;;;;;;13.80;99.90;;;;;;5060165;28;20408;-65
2021/08/08 00:10:40;;;;;;;2.83;1.05;;;13.80;99.90;;;;;;5059744;28;19920;-66
2021/08/08 00:13:06;;;;;;;2.38;0.77;;;13.80;99.90;;;;;;5059391;28;20041;-66
2021/08/08 00:15:32;;;;;;;;;;;13.80;99.90;;;;;;5058279;28;20056;-68
2021/08/08 00:17:58;;;;;;;4.80;1.80;;;13.80;99.90;;;;;;5052277;28;20637;-68
2021/08/08 00:20:23;;;;;;;;;;;13.80;99.90;;;;;;5047478;28;20033;-65
2021/08/08 00:22:49;;;;;;;1.05;0.70;;;13.80;99.90;;;;;;5046573;28;19916;-66
2021/08/08 00:25:15;;;;;;;;;;;13.90;99.90;;;;;;5047099;28;21182;-65
2021/08/08 00:27:40;;;;;;;1.75;0.73;;;13.90;99.90;;;;;;5045765;28;19971;-66
2021/08/08 00:30:07;;;;;;;;;;;13.90;99.90;;;;;;5046471;28;20230;-65
2021/08/08 00:32:32;;;;;;;1.45;0.80;;;13.90;99.90;;;;;;5046301;28;20011;-66
2021/08/08 00:34:58;;;;;;;;;;;13.90;99.90;;;;;;5046742;28;20149;-66
2021/08/08 00:37:24;;;;;;;2.13;0.70;;;14.00;99.90;;;;;;5045826;28;19916;-66
2021/08/08 00:39:49;;;;;;;;;;;14.00;99.90;;;;;;5047066;28;20037;-65
2021/08/08 00:42:15;;;;;;;3.40;1.10;;;14.00;99.90;;;;;;5046819;28;19916;-66
2021/08/08 00:44:41;;;;;;;;;;;14.00;99.90;;;;;;5045894;28;20048;-66
2021/08/08 00:47:06;;;;;;;3.80;0.60;;;14.00;99.90;;;;;;5045346;28;20335;-66
2021/08/08 00:49:32;;;;;;;;;;;14.00;99.90;;;;;;5048776;28;20626;-65
2021/08/08 00:51:58;;;;;;;1.85;0.85;;;14.00;99.90;;;;;;5046584;28;20009;-65
2021/08/08 00:54:23;;;;;;;;;;;14.10;99.90;;;;;;5046552;28;20530;-66
2021/08/08 00:56:49;;;;;;;3.55;0.60;;;14.10;99.90;;;;;;5045105;28;19923;-65
2021/08/08 00:59:14;;;;;;;;;;;14.00;99.90;;;;;;5046438;28;20051;-66
2021/08/08 01:01:46;;;;;;;0.68;0.47;;;14.00;99.90;;;;;;5044635;28;19917;-68
2021/08/08 01:04:16;;;;;;;5.03;0.52;;;14.00;99.90;;;;;;5045932;28;20366;-66
2021/08/08 01:06:51;;;;;;;1.55;0.80;;;13.90;99.90;;;;;;5046443;28;20136;-66
2021/08/08 01:09:19;;;;;;;1.70;0.57;;;13.90;99.90;;;;;;5045916;28;20032;-66
2021/08/08 01:11:45;;;;;;;1.73;0.85;;;13.90;99.90;;;;;;5046715;28;20527;-66
2021/08/08 01:14:12;;;;;;;1.20;0.52;;;13.90;99.90;;;;;;5045602;28;20041;-66
2021/08/08 01:16:39;;;;;;;5.53;1.88;;;14.00;99.90;;;;;;5044317;28;20051;-66
2021/08/08 01:19:08;;;;;;;1.65;0.60;;;14.00;99.90;;;;;;5046734;28;20033;-66
2021/08/08 01:21:34;;;;;;;2.45;0.90;;;14.00;99.90;;;;;;5046191;28;20489;-66
2021/08/08 01:24:04;;;;;;;;;;;14.00;99.90;;;;;;5045016;28;20044;-66
2021/08/08 01:26:31;;;;;;;2.28;1.48;;;14.00;99.90;;;;;;5046336;28;20042;-67
2021/08/08 01:28:57;;;;;;;3.25;0.63;;;14.00;99.90;;;;;;5044955;28;20044;-67
2021/08/08 01:31:23;;;;;;;1.38;0.70;;;14.00;99.90;;;;;;5046208;28;20037;-67
2021/08/08 01:33:49;;;;;;;;;;;14.00;99.90;;;;;;5046623;28;20044;-66
2021/08/08 01:36:17;;;;;;;0.85;0.50;;;14.00;99.90;;;;;;5046405;28;19920;-66
2021/08/08 01:38:47;;;;;;;8.40;1.08;;;14.00;99.90;;;;;;5046605;28;20045;-67
2021/08/08 01:41:14;;;;;;;7.05;1.00;;;14.00;99.90;;;;;;5046482;28;20094;-66
2021/08/08 01:43:44;;;;;;;4.03;1.00;;;14.00;99.90;;;;;;5062351;28;20091;-66
2021/08/08 01:46:12;;;;;;;2.50;1.00;;;14.00;99.90;;;;;;5045254;28;20037;-67
2021/08/08 01:48:47;;;;;;;4.13;1.05;;;13.90;99.90;;;;;;5045751;28;20044;-66
2021/08/08 01:51:13;;;;;;;3.38;1.08;;;13.90;99.90;;;;;;5045091;28;20045;-67
2021/08/08 01:53:40;;;;;;;2.85;0.70;;;13.90;99.90;;;;;;5046136;28;20484;-67
2021/08/08 01:56:05;;;;;;;1.20;0.70;;;14.00;99.90;;;;;;5045638;28;20507;-67
2021/08/08 01:58:31;;;;;;;;;;;14.00;99.90;;;;;;5046113;28;20041;-67
2021/08/08 02:00:57;;;;;;;3.60;0.77;;;14.00;99.90;;;;;;5045760;28;20006;-67
2021/08/08 02:03:34;;;;;;;5.35;1.00;;;14.00;99.90;;;;;;5045003;28;20437;-66
2021/08/08 02:05:59;;;;;;;2.80;1.08;;;14.00;99.90;;;;;;5043483;28;20052;-66
2021/08/08 02:08:25;;;;;;;;;;;14.00;99.90;;;;;;5046281;28;20041;-68
2021/08/08 02:10:51;;;;;;;4.63;1.10;;;13.90;99.90;;;;;;5045758;28;19917;-68
2021/08/08 02:13:16;;;;;;;;;;;14.00;99.90;;;;;;5046244;28;20073;-68
2021/08/08 02:15:42;;;;;;;4.72;1.10;;;13.90;99.90;;;;;;5044559;28;20039;-67
2021/08/08 02:18:07;;;;;;;;;;;13.90;99.90;;;;;;5045719;28;20393;-67
2021/08/08 02:20:33;;;;;;;1.48;1.00;;;13.90;99.90;;;;;;5045570;28;19917;-68
2021/08/08 02:22:58;;;;;;;;;;;13.90;99.90;;;;;;5045629;28;20087;-68
2021/08/08 02:25:24;;;;;;;9.20;1.50;;;13.90;99.90;;;;;;5045376;28;20427;-68
2021/08/08 02:27:49;;;;;;;;;;;13.90;99.90;;;;;;5045274;28;20122;-67
2021/08/08 02:30:15;;;;;;;3.78;1.20;;;13.90;99.90;;;;;;5044942;28;19921;-68
2021/08/08 02:32:40;;;;;;;;;;;13.90;99.90;;;;;;5046199;28;20157;-68
2021/08/08 02:35:06;;;;;;;4.72;1.33;;;13.90;99.90;;;;;;5045814;28;19924;-68
2021/08/08 02:37:32;;;;;;;;;;;13.90;99.90;;;;;;5045702;28;20455;-67
2021/08/08 02:39:57;;;;;;;3.33;1.48;;;13.90;99.90;;;;;;5043704;28;19920;-68
2021/08/08 02:42:23;;;;;;;;;;;13.90;99.90;;;;;;5045827;28;20041;-68
2021/08/08 02:44:49;;;;;;;2.72;1.30;;;13.90;99.90;;;;;;5045355;28;19916;-68
2021/08/08 02:47:14;;;;;;;;;;;13.90;99.90;;;;;;5043758;28;20067;-68
2021/08/08 02:49:40;;;;;;;4.22;1.38;;;14.00;99.90;;;;;;5044840;28;19924;-68
2021/08/08 02:52:06;;;;;;;;;;;14.00;99.90;;;;;;5045764;28;20527;-69
2021/08/08 02:54:33;;;;;;;3.33;1.63;;;14.00;99.90;;;;;;5046703;28;19927;-68
2021/08/08 02:56:58;;;;;;;3.25;1.42;;;14.00;99.90;;;;;;5044624;28;20527;-68
2021/08/08 02:59:24;;;;;;;;;;;14.00;99.90;;;;;;5045254;28;20045;-68
2021/08/08 03:01:49;;;;;;;7.88;1.85;;;14.00;99.90;;;;;;5044991;28;19919;-69
2021/08/08 03:04:15;;;;;;;;;;;13.90;99.90;;;;;;5044166;28;20424;-68
2021/08/08 03:06:45;;;;;;;4.78;1.23;;;13.90;99.90;;;;;;5044365;28;20475;-69
2021/08/08 03:09:11;;;;;;;2.05;1.40;;;13.90;99.90;;;;;;5045302;28;20428;-68
2021/08/08 03:11:37;;;;;;;;;;;13.90;99.90;;;;;;5045729;28;20048;-68
2021/08/08 03:14:03;;;;;;;4.72;1.70;;;13.90;99.90;;;;;;5044803;28;19917;-68
2021/08/08 03:16:28;;;;;;;;;;;13.90;99.90;;;;;;5044237;28;20091;-68
2021/08/08 03:18:54;;;;;;;4.45;1.10;;;13.90;99.90;;;;;;5016420;23;20062;-68
2021/08/08 03:21:19;;;;;;;;;;;13.90;99.90;;;;;;4986296;28;20508;-67
2021/08/08 03:23:45;;;;;;;2.60;1.15;;;13.90;99.90;;;;;;4985671;28;19921;-67
2021/08/08 03:26:10;;;;;;;;;;;13.90;99.90;;;;;;4985603;28;20442;-67
2021/08/08 03:28:36;;;;;;;4.07;1.27;;;13.90;99.90;;;;;;4986003;28;19965;-67
2021/08/08 03:31:01;;;;;;;;;;;13.90;99.90;;;;;;4985391;28;20037;-67
2021/08/08 03:33:27;;;;;;;2.33;1.10;;;13.90;99.90;;;;;;4984955;28;19918;-67
2021/08/08 03:35:52;;;;;;;;;;;13.80;99.90;;;;;;4985910;28;20046;-67
2021/08/08 03:38:18;;;;;;;6.30;1.35;;;13.90;99.90;;;;;;4984945;28;19926;-67
2021/08/08 03:40:43;;;;;;;;;;;13.90;99.90;;;;;;4985302;28;20083;-67
2021/08/08 03:43:09;;;;;;;4.13;1.65;;;13.90;99.90;;;;;;4985674;28;19965;-68
2021/08/08 03:45:34;;;;;;;;;;;13.90;99.90;;;;;;4967599;28;20133;-68
2021/08/08 03:48:00;;;;;;;4.80;1.33;;;13.90;99.90;;;;;;4985337;28;19924;-67
2021/08/08 03:50:26;;;;;;;;;;;13.90;99.90;;;;;;4986653;28;20128;-68
2021/08/08 03:52:52;;;;;;;2.50;1.50;;;13.90;99.90;;;;;;4986972;28;19918;-69
2021/08/08 03:55:18;;;;;;;;;;;13.90;99.90;;;;;;4990112;28;20038;-69
2021/08/08 03:57:44;;;;;;;5.22;2.28;;;13.90;99.90;;;;;;4988140;28;21159;-68
2021/08/08 04:00:09;;;;;;;;;;;13.90;99.90;;;;;;4988938;28;20121;-68
2021/08/08 04:02:36;;;;;;;4.95;2.38;;;13.90;99.90;;;;;;4989055;28;20363;-69
2021/08/08 04:05:02;;;;;;;6.85;1.65;;;13.80;99.90;;;;;;4972005;28;20053;-70
2021/08/08 04:07:27;;;;;;;;;;;13.80;99.90;;;;;;4988282;28;20046;-70
2021/08/08 04:09:53;;;;;;;4.03;1.63;;;13.80;99.90;;;;;;4987805;28;20337;-68
2021/08/08 04:12:18;;;;;;;;;;;13.80;99.90;;;;;;4988620;28;20045;-66
2021/08/08 04:14:44;;;;;;;3.90;1.58;;;13.80;99.90;;;;;;4971038;28;19921;-67
2021/08/08 04:17:09;;;;;;;;;;;13.80;99.90;;;;;;4971564;23;20035;-68
2021/08/08 04:19:35;;;;;;;5.82;1.60;;;13.80;99.90;;;;;;5007653;28;19928;-68
2021/08/08 04:22:04;;;;;;;;;;;13.80;99.90;;;;;;5007958;28;20049;-69
2021/08/08 04:24:29;;;;;;;10.80;2.38;;;13.80;99.90;;;;;;4990612;28;19964;-68
2021/08/08 04:26:55;;;;;;;;;;;13.90;99.90;;;;;;5008333;28;20093;-66
2021/08/08 04:29:21;;;;;;;6.65;2.55;;;13.80;99.90;;;;;;5007887;28;20358;-67
2021/08/08 04:31:47;;;;;;;4.25;1.42;;;13.80;99.90;;;;;;5007540;28;20049;-67
2021/08/08 04:34:13;;;;;;;;;;;13.80;99.90;;;;;;4992699;28;20091;-69
2021/08/08 04:36:38;;;;;;;3.33;1.40;;;13.80;99.90;;;;;;5009682;28;20241;-68
2021/08/08 04:39:04;;;;;;;;;;;13.90;99.90;;;;;;5005551;28;20044;-71
2021/08/08 04:41:29;;;;;;;4.72;2.00;;;13.90;99.90;;;;;;5008348;28;19929;-71
2021/08/08 04:43:55;;;;;;;;;;;13.90;99.90;;;;;;5008606;28;20541;-69
2021/08/08 04:46:21;;;;;;;6.13;1.38;;;13.90;99.90;;;;;;5007690;28;19940;-70
2021/08/08 04:48:46;;;;;;;;;;;13.80;99.90;;;;;;5008776;28;20775;-71
2021/08/08 04:51:12;;;;;;;6.68;1.75;;;13.90;99.90;;;;;;5008153;28;19968;-70
2021/08/08 04:53:37;;;;;;;;;;;13.80;99.90;;;;;;4990648;28;20060;-69
2021/08/08 04:56:03;;;;;;;9.70;2.08;;;13.80;99.90;;;;;;5006853;28;20344;-70
2021/08/08 04:58:28;;;;;;;;;;;13.90;99.90;;;;;;5023314;28;20052;-71
2021/08/08 05:00:54;;;;;;;9.98;1.95;;;13.90;99.90;;;;;;5026995;28;19921;-69
2021/08/08 05:03:20;;;;;;;;;;;13.80;99.90;;;;;;5027349;28;20041;-67
2021/08/08 05:05:45;;;;;;;7.28;1.83;;;13.80;99.90;;;;;;5027106;28;19923;-70
2021/08/08 05:08:11;;;;;;;;;;;13.80;99.90;;;;;;5013783;28;20498;-67
2021/08/08 05:10:36;;;;;;;4.05;2.03;;;13.80;99.90;;;;;;4995865;28;20008;-67
2021/08/08 05:13:02;;;;;;;;;;;13.80;99.90;;;;;;5007798;28;20591;-71
2021/08/08 05:15:27;;;;;;;4.93;2.05;;;13.80;99.90;;;;;;5007299;28;19925;-67
2021/08/08 05:17:53;;;;;;;;;;;13.80;99.90;;;;;;5007450;28;20047;-69
2021/08/08 05:20:19;;;;;;;9.70;2.67;;;13.80;99.90;;;;;;5006325;28;20289;-67
2021/08/08 05:22:47;;;;;;;;;;;13.80;99.90;;;;;;4991826;28;20084;-69
2021/08/08 05:25:13;;;;;;;1.92;1.30;;;13.90;99.90;;;;;;4990626;28;19925;-68
2021/08/08 05:27:39;;;;;;;;;;;13.80;99.90;;;;;;5007555;28;20121;-68
2021/08/08 05:30:07;;;;;;;7.10;2.13;;;13.80;99.90;;;;;;5006812;28;20033;-69
2021/08/08 05:32:33;;;;;;;8.13;3.45;;;13.80;99.90;;;;;;5006613;28;20115;-70
2021/08/08 05:34:58;;;;;;;;;;;13.80;99.90;;;;;;5007507;28;20037;-68
2021/08/08 05:37:24;;;;;;;6.82;1.60;;;13.80;99.90;;;;;;5006145;28;19917;-69
2021/08/08 05:39:50;;;;;;;;;;;13.80;99.90;;;;;;5007491;28;20850;-69
2021/08/08 05:42:19;;;;;;;5.70;1.73;;;13.70;99.90;;;;;;5006806;28;20094;-72
2021/08/08 05:44:45;;;;;;;13.93;2.30;;;13.70;99.90;;;;;;4989700;28;20128;-70
2021/08/08 05:47:11;;;;;;;;;;;13.70;99.90;;;;;;5005930;28;20069;-68
2021/08/08 05:49:36;;;;;;;3.80;1.60;;;13.70;99.90;;;;;;5006745;28;20581;-68
2021/08/08 05:52:03;;;;;;;;;;;13.70;99.90;;;;;;5005171;28;20033;-68
2021/08/08 05:54:29;;;;;;;4.82;1.42;;;13.80;99.90;;;;;;5002241;28;19917;-69
2021/08/08 05:56:54;;;;;;;11.73;1.90;;;13.80;99.90;;;;;;5003311;28;20949;-68
2021/08/08 05:59:20;;;;;;;;;;;13.80;99.90;;;;;;5001333;28;20033;-68
2021/08/08 06:01:45;;;;;;;10.63;1.92;;;13.80;99.90;;;;;;5005473;28;19921;-68
2021/08/08 06:04:11;;;;;;;;;;;13.80;99.90;;;;;;4990065;28;20037;-68
2021/08/08 06:06:37;;;;;;;15.18;2.75;;;13.80;99.90;;;;;;5006413;28;19968;-68
2021/08/08 06:09:02;;;;;;;;;;;13.90;99.90;;;;;;5007141;28;20447;-68
2021/08/08 06:11:28;;;;;;;11.02;2.60;;;14.00;99.90;;;;;;5006842;28;20286;-68
2021/08/08 06:13:53;;;;;;;;;;;14.10;99.90;;;;;;5006786;28;20057;-69
2021/08/08 06:16:19;;;;;;;8.18;2.30;;;14.10;99.90;;;;;;5005013;28;19921;-68
2021/08/08 06:18:44;;;;;;;;;;;14.10;99.90;;;;;;5006317;28;20038;-68
2021/08/08 06:21:10;;;;;;;7.30;2.17;;;14.10;99.90;;;;;;5006751;28;20546;-67
2021/08/08 06:23:36;;;;;;;;;;;14.10;99.90;;;;;;4988575;28;20049;-68
2021/08/08 06:26:01;;;;;;;5.57;1.80;;;14.10;99.90;;;;;;4987724;28;20059;-68
2021/08/08 06:28:27;;;;;;;;;;;14.10;99.90;;;;;;5006819;28;20103;-69
2021/08/08 06:30:52;;;;;;;8.25;2.05;;;14.00;99.90;;;;;;5006083;28;19921;-68
2021/08/08 06:33:19;;;;;;;;;;;14.00;99.90;;;;;;5006648;28;20041;-68
2021/08/08 06:35:45;;;;;;;7.70;1.80;;;14.20;99.90;;;;;;5006051;28;19921;-68
2021/08/08 06:38:10;;;;;;;;;;;14.20;99.90;;;;;;5006250;28;20056;-68
2021/08/08 06:40:36;;;;;;;6.55;1.85;;;14.20;99.90;;;;;;4994491;28;19926;-67
2021/08/08 06:43:04;;;;;;;;;;;14.10;99.90;;;;;;4988471;28;20092;-68
2021/08/08 06:45:31;;;;;;;8.35;1.77;;;14.10;99.90;;;;;;5005879;28;20373;-68
2021/08/08 06:47:59;;;;;;;9.73;2.47;;;14.10;99.90;;;;;;5005940;28;20104;-69
2021/08/08 06:50:24;;;;;;;6.35;2.03;;;14.10;99.90;;;;;;5006514;28;20038;-68
2021/08/08 06:52:50;;;;;;;;;;;14.10;99.90;;;;;;4988211;28;20560;-68
2021/08/08 06:55:15;;;;;;;5.70;1.88;;;14.00;99.90;;;;;;5005050;28;19989;-68
2021/08/08 06:57:41;;;;;;;;;;;14.00;99.90;;;;;;5006421;28;20418;-68
2021/08/08 07:00:07;;;;;;;6.72;2.30;;;14.00;99.90;;;;;;5006077;28;19918;-68
2021/08/08 07:02:33;;;;;;;7.68;1.95;;;14.00;99.90;;;;;;5004833;28;20045;-68
2021/08/08 07:04:58;;;;;;;;;;;14.00;99.90;;;;;;4988352;28;20045;-68
2021/08/08 07:07:24;;;;;;;7.63;2.63;;;13.90;99.90;;;;;;5005723;28;20525;-68
2021/08/08 07:09:50;;;;;;;;;;;14.00;99.90;;;;;;5006258;28;20049;-69
2021/08/08 07:12:15;;;;;;;5.22;2.20;;;13.90;99.90;;;;;;5013260;28;20489;-69
2021/08/08 07:14:41;;;;;;;;;;;13.80;99.90;;;;;;4989038;28;20044;-69
2021/08/08 07:17:06;;;;;;;11.27;3.42;;;13.90;99.90;;;;;;5005844;28;19972;-69
2021/08/08 07:19:32;;;;;;;;;;;13.90;99.90;;;;;;5006901;28;20092;-69
2021/08/08 07:21:58;;;;;;;22.88;3.97;;;13.90;99.90;;;;;;5005546;28;19972;-68
2021/08/08 07:24:23;;;;;;;;;;;13.80;99.90;;;;;;5006638;28;20046;-69
2021/08/08 07:26:49;;;;;;;8.25;2.92;;;13.90;99.90;;;;;;5006608;28;19923;-69
2021/08/08 07:29:14;;;;;;;;;;;14.10;99.90;;;;;;5010923;28;20056;-68
2021/08/08 07:31:40;;;;;;;15.32;5.90;;;14.20;99.90;;;;;;5010648;28;19940;-69
2021/08/08 07:34:06;;;;;;;;;;;14.30;99.90;;;;;;5010919;28;20042;-68
2021/08/08 07:36:31;;;;;;;6.57;1.83;;;14.40;99.90;;;;;;5010036;28;20068;-69
2021/08/08 07:38:57;;;;;;;;;;;14.60;99.90;;;;;;5009956;28;20058;-68
2021/08/08 07:41:22;;;;;;;9.20;1.90;;;14.80;99.90;;;;;;5010720;28;19956;-68
2021/08/08 07:43:48;;;;;;;;;;;15.00;99.90;;;;;;5011093;28;20037;-68
2021/08/08 07:46:14;;;;;;;4.82;1.80;;;15.10;99.90;;;;;;5008801;28;19963;-69
2021/08/08 07:48:39;;;;;;;;;;;15.20;99.90;;;;;;5010112;28;20037;-68
2021/08/08 07:51:05;;;;;;;4.93;1.17;;;15.30;99.90;;;;;;5009479;28;19924;-68
2021/08/08 07:53:31;;;;;;;7.38;1.83;;;15.20;99.90;;;;;;5008860;28;20037;-69
2021/08/08 07:55:56;;;;;;;;;;;15.30;99.90;;;;;;5009108;28;20091;-68
2021/08/08 07:58:23;;;;;;;5.15;1.30;;;15.40;99.90;;;;;;5008334;28;19925;-66
2021/08/08 08:00:48;;;;;;;2.97;1.13;;;15.50;99.90;;;;;;4990976;28;20049;-66
2021/08/08 08:03:14;;;;;;;;;;;15.70;99.90;;;;;;5008967;28;20045;-67
2021/08/08 08:05:40;;;;;;;6.13;1.80;;;15.90;99.90;;;;;;5007684;28;19921;-67
2021/08/08 08:08:06;;;;;;;;;;;16.30;99.40;;;;;;5008327;28;20046;-67
2021/08/08 08:10:33;;;;;;;6.45;1.50;;;16.40;98.80;;;;;;5008319;28;19927;-67
2021/08/08 08:13:00;;;;;;;3.78;1.17;;;16.80;99.00;;;;;;5008979;28;20057;-67
2021/08/08 08:15:28;;;;;;;2.75;1.17;;;18.10;96.90;;;;;;5007414;28;20045;-67
2021/08/08 08:17:54;;;;;;;2.53;0.95;;;18.20;94.40;;;;;;5010157;28;20037;-67
2021/08/08 08:20:20;;;;;;;6.05;1.40;;;18.70;94.40;;;;;;5009162;28;20045;-67
2021/08/08 08:22:45;;;;;;;;;;;18.40;95.50;;;;;;5008928;28;20046;-68
2021/08/08 08:25:11;;;;;;;13.70;4.97;;;17.90;96.50;;;;;;5008483;28;19918;-68
2021/08/08 08:27:38;;;;;;;7.85;2.03;;;17.60;96.80;;;;;;5006974;28;20130;-67
2021/08/08 08:30:05;;;;;;;5.80;1.40;;;17.10;96.70;;;;;;4987359;28;20116;-67
2021/08/08 08:32:30;;;;;;;4.45;1.33;;;16.60;96.90;;;;;;5004327;28;20536;-71
2021/08/08 08:35:01;;;;;;;;;;;16.20;97.60;;;;;;5006268;28;20033;-66
2021/08/08 08:37:26;;;;;;;4.80;1.33;;;16.10;98.70;;;;;;5002816;28;19921;-68
2021/08/08 08:39:52;;;;;;;;;;;15.90;99.30;;;;;;5000663;28;20052;-68
2021/08/08 08:42:18;;;;;;;5.13;1.33;;;15.70;99.10;;;;;;5007916;28;19928;-69
2021/08/08 08:44:44;;;;;;;;;;;15.60;99.40;;;;;;5008225;28;20058;-69
2021/08/08 08:47:14;;;;;;;12.73;4.68;;;15.40;99.70;;;;;;5006702;28;20011;-67
2021/08/08 08:49:46;;;;;;;14.90;5.65;;;15.50;99.90;;;;;;5008061;28;20046;-68
2021/08/08 08:52:14;;;;;;;3.58;1.63;;;15.50;99.90;;;;;;5007906;28;20061;-67
2021/08/08 08:54:40;;;;;;;6.82;1.58;;;15.60;99.90;;;;;;5007898;28;20476;-68
2021/08/08 08:57:07;;;;;;;;;;;15.60;99.80;;;;;;5008231;28;20125;-67
2021/08/08 08:59:32;;;;;;;3.45;1.42;;;15.50;99.90;;;;;;5007983;28;19944;-68
2021/08/08 09:01:58;;;;;;;;;;;15.60;99.90;;;;;;5007692;28;20557;-68
2021/08/08 09:04:23;;;;;;;3.63;1.38;;;15.60;99.90;;;;;;5006855;28;19929;-67
2021/08/08 09:06:49;;;;;;;;;;;15.50;99.90;;;;;;5008127;28;20046;-67
2021/08/08 09:09:15;;;;;;;4.65;1.90;;;15.50;99.80;;;;;;5007393;28;19932;-67
2021/08/08 09:11:43;;;;;;;5.88;1.45;;;15.50;99.70;;;;;;5007583;28;20057;-67
2021/08/08 09:14:11;;;;;;;3.88;1.45;;;15.70;99.90;;;;;;5008092;28;20500;-67
2021/08/08 09:16:50;;;;;;;6.68;1.25;;;15.70;99.70;;;;;;5006729;28;20085;-68
2021/08/08 09:19:28;;;;;;;7.47;1.55;;;15.70;99.60;;;;;;5007174;28;20042;-68
2021/08/08 09:21:56;;;;;;;3.88;1.20;;;15.80;99.80;;;;;;4989707;28;20042;-67
2021/08/08 09:24:33;;;;;;;6.97;1.90;;;15.80;99.50;;;;;;5006802;28;20045;-68
2021/08/08 09:27:01;;;;;;;2.90;1.05;;;15.90;99.70;;;;;;5006642;28;20052;-68
2021/08/08 09:29:27;;;;;;;6.20;2.10;;;15.90;99.80;;;;;;5006985;28;20052;-68
2021/08/08 09:31:52;;;;;;;3.80;1.20;;;16.00;99.40;;;;;;5006890;28;20052;-68
2021/08/08 09:34:24;;;;;;;;;;;16.00;98.90;;;;;;5007756;28;20046;-67
2021/08/08 09:36:50;;;;;;;5.15;1.42;;;16.10;99.00;;;;;;5007778;28;19917;-68
2021/08/08 09:39:26;;;;;;;;;;;16.30;98.00;;;;;;4926514;28;20148;-68
2021/08/08 09:41:51;;;;;;;8.35;2.30;;;16.70;98.10;;;;;;4988227;28;19924;-68
2021/08/08 09:44:17;;;;;;;;;;;16.70;98.00;;;;;;5007970;28;20038;-67
2021/08/08 09:46:43;;;;;;;2.83;1.30;;;16.50;97.60;;;;;;5004544;28;20024;-68
2021/08/08 09:49:12;;;;;;;;;;;16.30;98.10;;;;;;5007547;28;20143;-68
2021/08/08 09:51:48;;;;;;;2.78;1.20;;;16.50;98.40;;;;;;5006467;28;19936;-68
2021/08/08 09:54:14;;;;;;;9.60;1.85;;;16.30;99.10;;;;;;5005200;28;20038;-68
2021/08/08 09:56:39;;;;;;;;;;;16.70;98.60;;;;;;5006981;28;20073;-67
2021/08/08 09:59:05;;;;;;;5.55;1.20;;;16.70;98.10;;;;;;5008529;28;19924;-68
2021/08/08 10:01:40;;;;;;;;;;;16.90;98.00;;;;;;5005307;28;20042;-68
2021/08/08 10:04:07;;;;;;;5.15;1.15;;;17.00;97.90;;;;;;5006232;28;20333;-66
2021/08/08 10:06:33;;;;;;;3.05;1.20;;;17.10;97.70;;;;;;5006295;28;20045;-68
2021/08/08 10:09:01;;;;;;;5.80;1.42;;;17.00;97.60;;;;;;5006178;28;20147;-68
2021/08/08 10:11:28;;;;;;;3.53;1.45;;;17.00;97.00;;;;;;5006023;28;20053;-68
2021/08/08 10:14:02;;;;;;;2.00;1.15;;;16.80;97.00;;;;;;5006267;28;20433;-68
2021/08/08 10:16:33;;;;;;;6.65;1.52;;;16.70;97.30;;;;;;5005656;28;20081;-67
2021/08/08 10:19:02;;;;;;;3.28;1.00;;;17.00;97.70;;;;;;5004465;28;20049;-68
2021/08/08 10:21:30;;;;;;;5.45;1.50;;;17.30;96.80;;;;;;5005562;28;20041;-68
2021/08/08 10:24:00;;;;;;;5.13;1.25;;;17.30;97.10;;;;;;5005744;28;20854;-67
2021/08/08 10:26:26;;;;;;;5.57;1.42;;;17.20;96.50;;;;;;5005841;28;20044;-68
2021/08/08 10:28:51;;;;;;;;;;;17.20;96.00;;;;;;5006696;28;20045;-67
2021/08/08 10:31:20;;;;;;;4.97;1.10;;;17.10;96.10;;;;;;5004838;28;19940;-69
2021/08/08 10:33:56;;;;;;;5.68;1.83;;;17.10;96.60;;;;;;5005115;28;20038;-68
2021/08/08 10:36:24;;;;;;;3.10;1.45;;;17.10;97.10;;;;;;5004152;28;20442;-69
2021/08/08 10:39:04;;;;;;;5.60;1.88;;;17.00;95.70;;;;;;5004758;28;20049;-67
2021/08/08 10:41:30;;;;;;;4.50;1.20;;;17.00;96.50;;;;;;5005374;28;20076;-68
2021/08/08 10:44:02;;;;;;;;;;;16.80;96.80;;;;;;5004748;28;20709;-68
2021/08/08 10:46:28;;;;;;;7.80;2.05;;;16.80;97.00;;;;;;5003743;28;19917;-69
2021/08/08 10:49:01;;;;;;;;;;;16.70;97.30;;;;;;5020863;28;20128;-69
2021/08/08 10:51:26;;;;;;;12.10;2.50;;;16.70;96.10;;;;;;5024698;28;20385;-67
2021/08/08 10:53:59;;;;;;;;;;;16.50;96.30;;;;;;5024845;28;20048;-68
2021/08/08 10:56:37;;;;;;;3.22;1.10;;;16.50;96.50;;;;;;5024199;28;20588;-68
2021/08/08 10:59:20;;;;;;;6.60;1.83;;;16.50;96.70;;;;;;5006149;28;20045;-67
2021/08/08 11:01:47;;;;;;;4.80;1.33;;;16.60;97.00;;;;;;5003835;28;20042;-68
2021/08/08 11:04:14;;;;;;;4.20;1.33;;;16.60;97.20;;;;;;5005198;28;20458;-67
2021/08/08 11:06:42;;;;;;;6.88;1.88;;;16.70;97.10;;;;;;5005991;28;20462;-68
2021/08/08 11:09:07;;;;;;;4.47;1.30;;;16.90;97.20;;;;;;5004690;28;20045;-69
2021/08/08 11:11:34;;;;;;;;;;;17.00;96.60;;;;;;5005704;28;20554;-66
2021/08/08 11:14:14;;;;;;;8.65;1.70;;;17.10;96.20;;;;;;5005814;28;20436;-67
2021/08/08 11:16:46;;;;;;;4.28;1.30;;;17.20;96.20;;;;;;5003771;28;20042;-68
2021/08/08 11:19:12;;;;;;;5.90;1.58;;;17.30;95.80;;;;;;5005952;28;20046;-68
2021/08/08 11:21:39;;;;;;;6.05;1.50;;;17.20;95.40;;;;;;5004371;28;20038;-68
2021/08/08 11:24:09;;;;;;;7.60;1.88;;;17.00;95.90;;;;;;5005306;28;20413;-69
2021/08/08 11:26:34;;;;;;;3.05;1.10;;;17.00;96.60;;;;;;5004377;28;20042;-67
2021/08/08 11:29:01;;;;;;;;;;;17.00;95.90;;;;;;4987713;28;20042;-68
2021/08/08 11:31:30;;;;;;;5.70;1.55;;;17.20;95.00;;;;;;5003935;28;19983;-67
2021/08/08 11:34:00;;;;;;;6.40;1.50;;;17.60;94.70;;;;;;5004554;28;20517;-67
2021/08/08 11:36:33;;;;;;;4.35;1.17;;;18.00;93.90;;;;;;5003952;28;20390;-68
2021/08/08 11:39:00;;;;;;;5.45;1.55;;;18.20;93.90;;;;;;5002842;28;20045;-67
2021/08/08 11:41:28;;;;;;;6.72;1.10;;;18.40;93.10;;;;;;5004944;28;20802;-68
2021/08/08 11:44:02;;;;;;;8.57;1.50;;;18.40;93.30;;;;;;5004183;28;20051;-69
2021/08/08 11:46:27;;;;;;;9.88;1.42;;;18.20;92.80;;;;;;5002920;28;20038;-69
2021/08/08 11:48:53;;;;;;;;;;;18.30;92.90;;;;;;5004858;28;20490;-68
2021/08/08 11:51:22;;;;;;;3.85;1.42;;;18.40;93.50;;;;;;5005166;28;19924;-68
2021/08/08 11:53:53;;;;;;;8.82;1.80;;;18.50;93.00;;;;;;5003630;28;20042;-67
2021/08/08 11:56:22;;;;;;;5.78;1.10;;;18.20;92.60;;;;;;5003889;28;20498;-69
2021/08/08 11:58:53;;;;;;;5.35;0.95;;;18.10;92.60;;;;;;5011055;28;20026;-68
2021/08/08 12:01:20;;;;;;;6.80;1.48;;;18.20;93.90;;;;;;5003568;28;20038;-66
2021/08/08 12:03:49;;;;;;;7.47;1.42;;;18.20;93.20;;;;;;5004090;28;20522;-69
2021/08/08 12:06:18;;;;;;;3.47;1.00;;;18.20;93.50;;;;;;5003657;28;20137;-68
2021/08/08 12:08:44;;;;;;;5.85;1.10;;;18.10;93.40;;;;;;5003976;28;20204;-68
2021/08/08 12:11:10;;;;;;;;;;;18.10;93.50;;;;;;5003966;28;20729;-67
2021/08/08 12:13:35;;;;;;;5.95;1.08;;;18.00;93.90;;;;;;5004522;28;19917;-67
2021/08/08 12:16:10;;;;;;;;;;;17.90;93.30;;;;;;5007108;28;20045;-68
2021/08/08 12:18:35;;;;;;;4.88;1.33;;;17.80;93.40;;;;;;5007067;28;19979;-68
2021/08/08 12:21:01;;;;;;;;;;;17.80;93.80;;;;;;5008596;28;20042;-68
2021/08/08 12:23:27;;;;;;;8.52;1.15;;;17.70;93.70;;;;;;5007010;28;19924;-67
2021/08/08 12:25:57;;;;;;;;;;;17.60;94.10;;;;;;5006835;28;20046;-67
2021/08/08 12:28:24;;;;;;;6.65;1.40;;;17.50;94.30;;;;;;5006610;28;19932;-69
2021/08/08 12:30:50;;;;;;;2.47;1.13;;;17.50;94.50;;;;;;5006529;28;20042;-69
2021/08/08 12:33:16;;;;;;;;;;;17.40;94.80;;;;;;5007420;28;20044;-69
2021/08/08 12:35:44;;;;;;;4.32;1.42;;;17.40;95.10;;;;;;5005991;28;19921;-67
2021/08/08 12:38:13;;;;;;;4.15;1.40;;;17.20;94.30;;;;;;5007297;28;20504;-69
2021/08/08 12:40:47;;;;;;;4.47;1.38;;;17.00;94.90;;;;;;5007592;28;20049;-68
2021/08/08 12:43:23;;;;;;;4.00;1.60;;;17.00;95.50;;;;;;4988815;28;20045;-68
2021/08/08 12:45:50;;;;;;;7.22;1.33;;;16.90;95.30;;;;;;5006533;28;20038;-68
2021/08/08 12:48:26;;;;;;;6.32;1.33;;;16.90;95.60;;;;;;5006238;28;20046;-69
2021/08/08 12:50:51;;;;;;;6.15;1.38;;;17.00;96.00;;;;;;5006140;28;20379;-68
2021/08/08 12:53:17;;;;;;;;;;;17.20;96.00;;;;;;5007521;28;20046;-69
2021/08/08 12:55:43;;;;;;;6.53;1.50;;;17.40;95.90;;;;;;5005441;28;19922;-69
2021/08/08 12:58:08;;;;;;;7.82;1.30;;;17.50;95.80;;;;;;5007149;28;20049;-68
2021/08/08 13:00:34;;;;;;;;;;;17.30;95.00;;;;;;5005966;28;20037;-68
2021/08/08 13:03:01;;;;;;;5.25;1.33;;;17.30;95.50;;;;;;5007045;28;19952;-68
2021/08/08 13:05:26;;;;;;;6.55;1.98;;;17.30;95.00;;;;;;5005614;28;20046;-68
2021/08/08 13:07:52;;;;;;;;;;;17.10;94.90;;;;;;5006671;28;20452;-69
2021/08/08 13:10:17;;;;;;;3.58;1.38;;;17.00;95.20;;;;;;5005756;28;20302;-67
2021/08/08 13:12:47;;;;;;;;;;;16.90;95.20;;;;;;4989138;28;20041;-68